sensor_id;sensor_type;location;lat;lon;timestamp;P1;durP1;ratioP1;P2;durP2;ratioP2
45011;SDS011;63444;48.148;11.542;2024-01-07T00:02:18;10.30;;;9.30;;
45011;SDS011;63444;48.148;11.542;2024-01-07T00:04:44;9.77;;;8.83;;
45011;SDS011;63444;48.148;11.542;2024-01-07T00:07:10;10.37;;;9.27;;
45011;SDS011;63444;48.148;11.542;2024-01-07T00:09:37;10.37;;;9.37;;
45011;SDS011;63444;48.148;11.542;2024-01-07T00:12:04;11.20;;;10.07;;
45011;SDS011;63444;48.148;11.542;2024-01-07T00:14:30;10.07;;;9.07;;
45011;SDS011;63444;48.148;11.542;2024-01-07T00:16:55;10.10;;;9.20;;
45011;SDS011;63444;48.148;11.542;2024-01-07T00:19:21;10.37;;;9.37;;
45011;SDS011;63444;48.148;11.542;2024-01-07T00:21:46;10.30;;;9.30;;
45011;SDS011;63444;48.148;11.542;2024-01-07T00:24:13;11.33;;;10.23;;
45011;SDS011;63444;48.148;11.542;2024-01-07T00:26:38;11.30;;;10.20;;
45011;SDS011;63444;48.148;11.542;2024-01-07T00:29:05;11.27;;;10.13;;
45011;SDS011;63444;48.148;11.542;2024-01-07T00:31:31;11.90;;;10.70;;
45011;SDS011;63444;48.148;11.542;2024-01-07T00:33:57;10.53;;;9.43;;
45011;SDS011;63444;48.148;11.542;2024-01-07T00:36:28;9.43;;;8.53;;
45011;SDS011;63444;48.148;11.542;2024-01-07T00:38:55;10.53;;;9.53;;
45011;SDS011;63444;48.148;11.542;2024-01-07T00:41:20;10.07;;;9.13;;
45011;SDS011;63444;48.148;11.542;2024-01-07T00:43:46;10.97;;;9.87;;
45011;SDS011;63444;48.148;11.542;2024-01-07T00:46:12;10.50;;;9.50;;
45011;SDS011;63444;48.148;11.542;2024-01-07T00:48:37;10.47;;;9.47;;
45011;SDS011;63444;48.148;11.542;2024-01-07T00:51:04;11.43;;;10.30;;
45011;SDS011;63444;48.148;11.542;2024-01-07T00:53:29;10.83;;;9.77;;
45011;SDS011;63444;48.148;11.542;2024-01-07T00:55:55;9.70;;;8.70;;
45011;SDS011;63444;48.148;11.542;2024-01-07T00:58:21;10.20;;;9.20;;
45011;SDS011;63444;48.148;11.542;2024-01-07T01:00:46;9.87;;;8.83;;
45011;SDS011;63444;48.148;11.542;2024-01-07T01:03:12;10.57;;;9.47;;
45011;SDS011;63444;48.148;11.542;2024-01-07T01:05:37;11.03;;;9.93;;
45011;SDS011;63444;48.148;11.542;2024-01-07T01:08:03;9.83;;;8.90;;
45011;SDS011;63444;48.148;11.542;2024-01-07T01:10:30;9.50;;;8.37;;
45011;SDS011;63444;48.148;11.542;2024-01-07T01:12:56;9.97;;;8.97;;
45011;SDS011;63444;48.148;11.542;2024-01-07T01:15:21;9.23;;;8.33;;
45011;SDS011;63444;48.148;11.542;2024-01-07T01:17:48;10.00;;;9.00;;
45011;SDS011;63444;48.148;11.542;2024-01-07T01:20:14;10.30;;;9.30;;
45011;SDS011;63444;48.148;11.542;2024-01-07T01:22:39;10.17;;;9.17;;
45011;SDS011;63444;48.148;11.542;2024-01-07T01:25:05;9.93;;;9.03;;
45011;SDS011;63444;48.148;11.542;2024-01-07T01:27:31;10.47;;;9.47;;
45011;SDS011;63444;48.148;11.542;2024-01-07T01:29:56;10.40;;;9.40;;
45011;SDS011;63444;48.148;11.542;2024-01-07T01:32:22;9.80;;;8.90;;
45011;SDS011;63444;48.148;11.542;2024-01-07T01:34:48;9.17;;;8.27;;
45011;SDS011;63444;48.148;11.542;2024-01-07T01:37:13;9.57;;;8.63;;
45011;SDS011;63444;48.148;11.542;2024-01-07T01:39:42;9.67;;;8.77;;
45011;SDS011;63444;48.148;11.542;2024-01-07T01:42:08;9.60;;;8.63;;
45011;SDS011;63444;48.148;11.542;2024-01-07T01:44:33;9.57;;;8.67;;
45011;SDS011;63444;48.148;11.542;2024-01-07T01:46:59;8.70;;;7.90;;
45011;SDS011;63444;48.148;11.542;2024-01-07T01:49:26;9.07;;;8.17;;
45011;SDS011;63444;48.148;11.542;2024-01-07T01:51:52;8.97;;;8.17;;
45011;SDS011;63444;48.148;11.542;2024-01-07T01:54:18;9.67;;;8.77;;
45011;SDS011;63444;48.148;11.542;2024-01-07T01:56:45;9.10;;;8.23;;
45011;SDS011;63444;48.148;11.542;2024-01-07T01:59:11;8.43;;;7.63;;
45011;SDS011;63444;48.148;11.542;2024-01-07T02:01:37;8.40;;;7.60;;
45011;SDS011;63444;48.148;11.542;2024-01-07T02:04:03;8.53;;;7.73;;
45011;SDS011;63444;48.148;11.542;2024-01-07T02:06:29;8.43;;;7.63;;
45011;SDS011;63444;48.148;11.542;2024-01-07T02:08:56;9.40;;;8.50;;
45011;SDS011;63444;48.148;11.542;2024-01-07T02:11:22;9.00;;;8.20;;
45011;SDS011;63444;48.148;11.542;2024-01-07T02:13:48;9.13;;;8.30;;
45011;SDS011;63444;48.148;11.542;2024-01-07T02:16:14;8.30;;;7.50;;
45011;SDS011;63444;48.148;11.542;2024-01-07T02:18:40;8.60;;;7.83;;
45011;SDS011;63444;48.148;11.542;2024-01-07T02:21:07;8.00;;;7.30;;
45011;SDS011;63444;48.148;11.542;2024-01-07T02:23:34;8.50;;;7.70;;
45011;SDS011;63444;48.148;11.542;2024-01-07T02:25:59;8.47;;;7.67;;
45011;SDS011;63444;48.148;11.542;2024-01-07T02:28:25;7.70;;;7.00;;
45011;SDS011;63444;48.148;11.542;2024-01-07T02:30:50;9.03;;;7.30;;
45011;SDS011;63444;48.148;11.542;2024-01-07T02:33:16;8.13;;;7.43;;
45011;SDS011;63444;48.148;11.542;2024-01-07T02:35:42;8.33;;;7.57;;
45011;SDS011;63444;48.148;11.542;2024-01-07T02:38:07;8.70;;;7.90;;
45011;SDS011;63444;48.148;11.542;2024-01-07T02:40:33;8.30;;;7.60;;
45011;SDS011;63444;48.148;11.542;2024-01-07T02:42:58;8.10;;;7.40;;
45011;SDS011;63444;48.148;11.542;2024-01-07T02:45:25;8.63;;;7.83;;
45011;SDS011;63444;48.148;11.542;2024-01-07T02:47:51;7.87;;;7.17;;
45011;SDS011;63444;48.148;11.542;2024-01-07T02:50:17;8.70;;;7.90;;
45011;SDS011;63444;48.148;11.542;2024-01-07T02:52:42;8.10;;;7.37;;
45011;SDS011;63444;48.148;11.542;2024-01-07T02:55:08;8.90;;;8.10;;
45011;SDS011;63444;48.148;11.542;2024-01-07T02:57:34;7.80;;;7.10;;
45011;SDS011;63444;48.148;11.542;2024-01-07T03:00:00;8.80;;;8.00;;
45011;SDS011;63444;48.148;11.542;2024-01-07T03:02:25;8.53;;;7.53;;
45011;SDS011;63444;48.148;11.542;2024-01-07T03:04:51;8.10;;;7.40;;
45011;SDS011;63444;48.148;11.542;2024-01-07T03:07:17;7.83;;;7.13;;
45011;SDS011;63444;48.148;11.542;2024-01-07T03:09:42;7.77;;;7.07;;
45011;SDS011;63444;48.148;11.542;2024-01-07T03:12:08;7.33;;;6.63;;
45011;SDS011;63444;48.148;11.542;2024-01-07T03:14:34;7.77;;;7.07;;
45011;SDS011;63444;48.148;11.542;2024-01-07T03:16:59;7.30;;;6.70;;
45011;SDS011;63444;48.148;11.542;2024-01-07T03:19:25;7.87;;;7.17;;
45011;SDS011;63444;48.148;11.542;2024-01-07T03:21:50;7.70;;;7.10;;
45011;SDS011;63444;48.148;11.542;2024-01-07T03:24:16;8.27;;;7.47;;
45011;SDS011;63444;48.148;11.542;2024-01-07T03:26:42;8.03;;;7.33;;
45011;SDS011;63444;48.148;11.542;2024-01-07T03:29:07;7.73;;;7.03;;
45011;SDS011;63444;48.148;11.542;2024-01-07T03:31:33;8.00;;;7.30;;
45011;SDS011;63444;48.148;11.542;2024-01-07T03:33:59;7.87;;;7.17;;
45011;SDS011;63444;48.148;11.542;2024-01-07T03:36:24;7.73;;;6.97;;
45011;SDS011;63444;48.148;11.542;2024-01-07T03:38:50;8.60;;;7.80;;
45011;SDS011;63444;48.148;11.542;2024-01-07T03:41:16;8.07;;;7.37;;
45011;SDS011;63444;48.148;11.542;2024-01-07T03:43:43;8.13;;;7.43;;
45011;SDS011;63444;48.148;11.542;2024-01-07T03:46:09;7.40;;;6.80;;
45011;SDS011;63444;48.148;11.542;2024-01-07T03:48:35;7.47;;;6.80;;
45011;SDS011;63444;48.148;11.542;2024-01-07T03:51:02;8.13;;;7.43;;
45011;SDS011;63444;48.148;11.542;2024-01-07T03:53:27;7.50;;;6.80;;
45011;SDS011;63444;48.148;11.542;2024-01-07T03:55:53;7.77;;;7.07;;
45011;SDS011;63444;48.148;11.542;2024-01-07T03:58:19;8.23;;;7.53;;
45011;SDS011;63444;48.148;11.542;2024-01-07T04:00:46;7.90;;;7.20;;
45011;SDS011;63444;48.148;11.542;2024-01-07T04:03:11;7.80;;;7.10;;
45011;SDS011;63444;48.148;11.542;2024-01-07T04:05:37;7.77;;;7.13;;
45011;SDS011;63444;48.148;11.542;2024-01-07T04:08:03;7.40;;;6.73;;
45011;SDS011;63444;48.148;11.542;2024-01-07T04:10:30;8.33;;;7.63;;
45011;SDS011;63444;48.148;11.542;2024-01-07T04:12:55;8.33;;;7.63;;
45011;SDS011;63444;48.148;11.542;2024-01-07T04:15:21;8.33;;;7.63;;
45011;SDS011;63444;48.148;11.542;2024-01-07T04:17:47;7.93;;;7.23;;
45011;SDS011;63444;48.148;11.542;2024-01-07T04:20:13;8.50;;;7.70;;
45011;SDS011;63444;48.148;11.542;2024-01-07T04:22:39;8.00;;;7.20;;
45011;SDS011;63444;48.148;11.542;2024-01-07T04:25:04;7.97;;;7.27;;
45011;SDS011;63444;48.148;11.542;2024-01-07T04:27:33;8.07;;;7.37;;
45011;SDS011;63444;48.148;11.542;2024-01-07T04:30:00;8.10;;;7.40;;
45011;SDS011;63444;48.148;11.542;2024-01-07T04:32:26;8.07;;;7.37;;
45011;SDS011;63444;48.148;11.542;2024-01-07T04:34:52;8.17;;;7.47;;
45011;SDS011;63444;48.148;11.542;2024-01-07T04:37:17;7.83;;;7.13;;
45011;SDS011;63444;48.148;11.542;2024-01-07T04:39:43;7.73;;;7.07;;
45011;SDS011;63444;48.148;11.542;2024-01-07T04:42:08;7.83;;;7.13;;
45011;SDS011;63444;48.148;11.542;2024-01-07T04:44:34;7.93;;;7.23;;
45011;SDS011;63444;48.148;11.542;2024-01-07T04:46:59;7.47;;;6.77;;
45011;SDS011;63444;48.148;11.542;2024-01-07T04:49:25;7.77;;;7.07;;
45011;SDS011;63444;48.148;11.542;2024-01-07T04:51:51;7.97;;;7.27;;
45011;SDS011;63444;48.148;11.542;2024-01-07T04:54:18;7.57;;;6.87;;
45011;SDS011;63444;48.148;11.542;2024-01-07T04:56:43;8.03;;;7.33;;
45011;SDS011;63444;48.148;11.542;2024-01-07T04:59:09;7.50;;;6.80;;
45011;SDS011;63444;48.148;11.542;2024-01-07T05:01:35;7.90;;;7.20;;
45011;SDS011;63444;48.148;11.542;2024-01-07T05:04:04;7.43;;;6.73;;
45011;SDS011;63444;48.148;11.542;2024-01-07T05:06:29;8.10;;;7.40;;
45011;SDS011;63444;48.148;11.542;2024-01-07T05:08:55;8.60;;;7.80;;
45011;SDS011;63444;48.148;11.542;2024-01-07T05:11:20;7.90;;;7.20;;
45011;SDS011;63444;48.148;11.542;2024-01-07T05:13:46;8.20;;;7.50;;
45011;SDS011;63444;48.148;11.542;2024-01-07T05:16:19;8.30;;;7.50;;
45011;SDS011;63444;48.148;11.542;2024-01-07T05:18:44;7.90;;;7.20;;
45011;SDS011;63444;48.148;11.542;2024-01-07T05:21:13;8.10;;;7.40;;
45011;SDS011;63444;48.148;11.542;2024-01-07T05:23:48;8.80;;;8.00;;
45011;SDS011;63444;48.148;11.542;2024-01-07T05:26:13;8.67;;;7.87;;
45011;SDS011;63444;48.148;11.542;2024-01-07T05:28:39;8.47;;;7.70;;
45011;SDS011;63444;48.148;11.542;2024-01-07T05:31:13;8.47;;;7.67;;
45011;SDS011;63444;48.148;11.542;2024-01-07T05:33:39;8.07;;;7.37;;
45011;SDS011;63444;48.148;11.542;2024-01-07T05:36:05;8.80;;;8.00;;
45011;SDS011;63444;48.148;11.542;2024-01-07T05:38:31;8.30;;;7.60;;
45011;SDS011;63444;48.148;11.542;2024-01-07T05:40:58;8.77;;;7.97;;
45011;SDS011;63444;48.148;11.542;2024-01-07T05:43:23;8.70;;;7.53;;
45011;SDS011;63444;48.148;11.542;2024-01-07T05:45:49;7.93;;;7.23;;
45011;SDS011;63444;48.148;11.542;2024-01-07T05:48:14;8.57;;;7.77;;
45011;SDS011;63444;48.148;11.542;2024-01-07T05:50:40;8.83;;;8.07;;
45011;SDS011;63444;48.148;11.542;2024-01-07T05:53:06;10.67;;;9.63;;
45011;SDS011;63444;48.148;11.542;2024-01-07T05:55:31;10.47;;;9.47;;
45011;SDS011;63444;48.148;11.542;2024-01-07T05:57:57;8.33;;;7.53;;
45011;SDS011;63444;48.148;11.542;2024-01-07T06:00:23;9.30;;;8.40;;
45011;SDS011;63444;48.148;11.542;2024-01-07T06:02:49;9.57;;;8.67;;
45011;SDS011;63444;48.148;11.542;2024-01-07T06:05:14;9.43;;;8.53;;
45011;SDS011;63444;48.148;11.542;2024-01-07T06:07:40;10.27;;;9.27;;
45011;SDS011;63444;48.148;11.542;2024-01-07T06:10:05;9.77;;;8.87;;
45011;SDS011;63444;48.148;11.542;2024-01-07T06:12:31;9.43;;;8.53;;
45011;SDS011;63444;48.148;11.542;2024-01-07T06:14:57;9.60;;;8.70;;
45011;SDS011;63444;48.148;11.542;2024-01-07T06:17:24;9.00;;;8.10;;
45011;SDS011;63444;48.148;11.542;2024-01-07T06:19:49;8.73;;;7.93;;
45011;SDS011;63444;48.148;11.542;2024-01-07T06:22:15;8.23;;;7.43;;
45011;SDS011;63444;48.148;11.542;2024-01-07T06:24:40;8.73;;;7.93;;
45011;SDS011;63444;48.148;11.542;2024-01-07T06:27:07;8.20;;;7.40;;
45011;SDS011;63444;48.148;11.542;2024-01-07T06:29:32;9.00;;;8.20;;
45011;SDS011;63444;48.148;11.542;2024-01-07T06:31:58;8.50;;;7.70;;
45011;SDS011;63444;48.148;11.542;2024-01-07T06:34:24;8.00;;;7.30;;
45011;SDS011;63444;48.148;11.542;2024-01-07T06:36:50;8.47;;;7.60;;
45011;SDS011;63444;48.148;11.542;2024-01-07T06:39:15;7.60;;;6.83;;
45011;SDS011;63444;48.148;11.542;2024-01-07T06:41:41;7.10;;;6.50;;
45011;SDS011;63444;48.148;11.542;2024-01-07T06:44:07;8.30;;;7.37;;
45011;SDS011;63444;48.148;11.542;2024-01-07T06:46:32;7.43;;;6.73;;
45011;SDS011;63444;48.148;11.542;2024-01-07T06:48:59;7.57;;;6.77;;
45011;SDS011;63444;48.148;11.542;2024-01-07T06:51:25;7.93;;;7.13;;
45011;SDS011;63444;48.148;11.542;2024-01-07T06:53:50;8.40;;;7.50;;
45011;SDS011;63444;48.148;11.542;2024-01-07T06:56:16;8.63;;;7.70;;
45011;SDS011;63444;48.148;11.542;2024-01-07T06:58:42;8.27;;;7.07;;
45011;SDS011;63444;48.148;11.542;2024-01-07T07:01:08;8.97;;;7.60;;
45011;SDS011;63444;48.148;11.542;2024-01-07T07:03:34;7.83;;;7.03;;
45011;SDS011;63444;48.148;11.542;2024-01-07T07:05:59;8.10;;;7.30;;
45011;SDS011;63444;48.148;11.542;2024-01-07T07:08:25;8.67;;;7.40;;
45011;SDS011;63444;48.148;11.542;2024-01-07T07:10:51;8.33;;;7.47;;
45011;SDS011;63444;48.148;11.542;2024-01-07T07:13:17;8.50;;;7.70;;
45011;SDS011;63444;48.148;11.542;2024-01-07T07:15:43;8.40;;;7.60;;
45011;SDS011;63444;48.148;11.542;2024-01-07T07:18:08;7.87;;;7.00;;
45011;SDS011;63444;48.148;11.542;2024-01-07T07:20:34;7.87;;;7.07;;
45011;SDS011;63444;48.148;11.542;2024-01-07T07:23:00;7.50;;;6.80;;
45011;SDS011;63444;48.148;11.542;2024-01-07T07:25:26;8.60;;;7.20;;
45011;SDS011;63444;48.148;11.542;2024-01-07T07:27:51;7.60;;;6.60;;
45011;SDS011;63444;48.148;11.542;2024-01-07T07:30:17;7.40;;;6.60;;
45011;SDS011;63444;48.148;11.542;2024-01-07T07:32:43;8.37;;;7.57;;
45011;SDS011;63444;48.148;11.542;2024-01-07T07:35:09;9.00;;;8.10;;
45011;SDS011;63444;48.148;11.542;2024-01-07T07:37:35;7.60;;;6.87;;
45011;SDS011;63444;48.148;11.542;2024-01-07T07:40:01;7.20;;;6.50;;
45011;SDS011;63444;48.148;11.542;2024-01-07T07:42:26;7.57;;;6.87;;
45011;SDS011;63444;48.148;11.542;2024-01-07T07:44:53;7.70;;;6.90;;
45011;SDS011;63444;48.148;11.542;2024-01-07T07:47:19;8.23;;;7.07;;
45011;SDS011;63444;48.148;11.542;2024-01-07T07:49:45;8.63;;;7.80;;
45011;SDS011;63444;48.148;11.542;2024-01-07T07:52:11;8.43;;;7.53;;
45011;SDS011;63444;48.148;11.542;2024-01-07T07:54:39;8.43;;;7.57;;
45011;SDS011;63444;48.148;11.542;2024-01-07T07:57:05;10.23;;;8.87;;
45011;SDS011;63444;48.148;11.542;2024-01-07T07:59:31;9.53;;;8.53;;
45011;SDS011;63444;48.148;11.542;2024-01-07T08:01:58;8.63;;;7.73;;
45011;SDS011;63444;48.148;11.542;2024-01-07T08:04:24;9.27;;;8.30;;
45011;SDS011;63444;48.148;11.542;2024-01-07T08:06:51;7.43;;;6.70;;
45011;SDS011;63444;48.148;11.542;2024-01-07T08:09:18;8.43;;;7.63;;
45011;SDS011;63444;48.148;11.542;2024-01-07T08:11:44;8.60;;;7.17;;
45011;SDS011;63444;48.148;11.542;2024-01-07T08:14:09;7.67;;;6.87;;
45011;SDS011;63444;48.148;11.542;2024-01-07T08:16:35;8.27;;;7.10;;
45011;SDS011;63444;48.148;11.542;2024-01-07T08:19:01;8.30;;;7.03;;
45011;SDS011;63444;48.148;11.542;2024-01-07T08:21:27;8.30;;;7.50;;
45011;SDS011;63444;48.148;11.542;2024-01-07T08:23:52;8.57;;;7.27;;
45011;SDS011;63444;48.148;11.542;2024-01-07T08:26:19;8.13;;;7.30;;
45011;SDS011;63444;48.148;11.542;2024-01-07T08:28:45;8.70;;;7.80;;
45011;SDS011;63444;48.148;11.542;2024-01-07T08:31:10;10.30;;;8.73;;
45011;SDS011;63444;48.148;11.542;2024-01-07T08:33:36;10.33;;;8.67;;
45011;SDS011;63444;48.148;11.542;2024-01-07T08:36:02;8.17;;;7.37;;
45011;SDS011;63444;48.148;11.542;2024-01-07T08:38:28;9.13;;;8.10;;
45011;SDS011;63444;48.148;11.542;2024-01-07T08:40:54;9.27;;;8.30;;
45011;SDS011;63444;48.148;11.542;2024-01-07T08:43:19;9.97;;;8.47;;
45011;SDS011;63444;48.148;11.542;2024-01-07T08:45:45;10.07;;;8.60;;
45011;SDS011;63444;48.148;11.542;2024-01-07T08:48:11;9.77;;;8.77;;
45011;SDS011;63444;48.148;11.542;2024-01-07T08:50:38;9.07;;;8.03;;
45011;SDS011;63444;48.148;11.542;2024-01-07T08:53:04;10.37;;;8.63;;
45011;SDS011;63444;48.148;11.542;2024-01-07T08:55:29;11.23;;;9.47;;
45011;SDS011;63444;48.148;11.542;2024-01-07T08:57:55;11.43;;;9.47;;
45011;SDS011;63444;48.148;11.542;2024-01-07T09:00:21;10.50;;;9.40;;
45011;SDS011;63444;48.148;11.542;2024-01-07T09:02:50;10.47;;;8.83;;
45011;SDS011;63444;48.148;11.542;2024-01-07T09:05:16;9.47;;;8.47;;
45011;SDS011;63444;48.148;11.542;2024-01-07T09:07:42;11.03;;;8.90;;
45011;SDS011;63444;48.148;11.542;2024-01-07T09:10:08;9.50;;;8.50;;
45011;SDS011;63444;48.148;11.542;2024-01-07T09:12:35;11.50;;;9.07;;
45011;SDS011;63444;48.148;11.542;2024-01-07T09:15:02;11.37;;;8.93;;
45011;SDS011;63444;48.148;11.542;2024-01-07T09:17:29;10.10;;;9.07;;
45011;SDS011;63444;48.148;11.542;2024-01-07T09:19:56;12.20;;;9.17;;
45011;SDS011;63444;48.148;11.542;2024-01-07T09:22:21;10.23;;;9.13;;
45011;SDS011;63444;48.148;11.542;2024-01-07T09:24:47;12.30;;;9.87;;
45011;SDS011;63444;48.148;11.542;2024-01-07T09:27:13;10.10;;;8.67;;
45011;SDS011;63444;48.148;11.542;2024-01-07T09:29:39;10.97;;;9.13;;
45011;SDS011;63444;48.148;11.542;2024-01-07T09:32:05;10.00;;;9.00;;
45011;SDS011;63444;48.148;11.542;2024-01-07T09:34:30;11.17;;;9.10;;
45011;SDS011;63444;48.148;11.542;2024-01-07T09:36:56;12.03;;;9.73;;
45011;SDS011;63444;48.148;11.542;2024-01-07T09:39:22;11.33;;;9.30;;
45011;SDS011;63444;48.148;11.542;2024-01-07T09:41:47;10.43;;;9.33;;
45011;SDS011;63444;48.148;11.542;2024-01-07T09:44:13;10.63;;;8.70;;
45011;SDS011;63444;48.148;11.542;2024-01-07T09:46:39;11.70;;;10.00;;
45011;SDS011;63444;48.148;11.542;2024-01-07T09:49:06;11.03;;;9.50;;
45011;SDS011;63444;48.148;11.542;2024-01-07T09:51:33;11.23;;;9.23;;
45011;SDS011;63444;48.148;11.542;2024-01-07T09:54:02;11.30;;;10.03;;
45011;SDS011;63444;48.148;11.542;2024-01-07T09:56:33;10.63;;;9.50;;
45011;SDS011;63444;48.148;11.542;2024-01-07T09:59:06;11.73;;;9.73;;
45011;SDS011;63444;48.148;11.542;2024-01-07T10:01:33;10.50;;;9.33;;
45011;SDS011;63444;48.148;11.542;2024-01-07T10:04:01;11.13;;;9.20;;
45011;SDS011;63444;48.148;11.542;2024-01-07T10:06:26;11.40;;;9.90;;
45011;SDS011;63444;48.148;11.542;2024-01-07T10:08:52;11.40;;;9.93;;
45011;SDS011;63444;48.148;11.542;2024-01-07T10:11:18;13.33;;;11.00;;
45011;SDS011;63444;48.148;11.542;2024-01-07T10:13:46;13.03;;;10.80;;
45011;SDS011;63444;48.148;11.542;2024-01-07T10:16:12;11.13;;;9.57;;
45011;SDS011;63444;48.148;11.542;2024-01-07T10:18:39;13.60;;;10.83;;
45011;SDS011;63444;48.148;11.542;2024-01-07T10:21:06;12.13;;;10.23;;
45011;SDS011;63444;48.148;11.542;2024-01-07T10:23:32;10.90;;;9.77;;
45011;SDS011;63444;48.148;11.542;2024-01-07T10:25:57;11.93;;;10.10;;
45011;SDS011;63444;48.148;11.542;2024-01-07T10:28:23;11.77;;;10.33;;
45011;SDS011;63444;48.148;11.542;2024-01-07T10:30:49;11.87;;;8.90;;
45011;SDS011;63444;48.148;11.542;2024-01-07T10:33:16;11.57;;;9.33;;
45011;SDS011;63444;48.148;11.542;2024-01-07T10:35:45;11.40;;;9.23;;
45011;SDS011;63444;48.148;11.542;2024-01-07T10:38:18;10.23;;;8.87;;
45011;SDS011;63444;48.148;11.542;2024-01-07T10:40:44;10.40;;;9.20;;
45011;SDS011;63444;48.148;11.542;2024-01-07T10:43:12;23.97;;;16.23;;
45011;SDS011;63444;48.148;11.542;2024-01-07T10:45:40;11.43;;;9.47;;
45011;SDS011;63444;48.148;11.542;2024-01-07T10:48:06;10.93;;;9.00;;
45011;SDS011;63444;48.148;11.542;2024-01-07T10:50:34;11.27;;;9.63;;
45011;SDS011;63444;48.148;11.542;2024-01-07T10:53:03;10.30;;;8.83;;
45011;SDS011;63444;48.148;11.542;2024-01-07T10:55:33;10.93;;;9.00;;
45011;SDS011;63444;48.148;11.542;2024-01-07T10:58:01;10.50;;;8.87;;
45011;SDS011;63444;48.148;11.542;2024-01-07T11:00:29;10.80;;;8.80;;
45011;SDS011;63444;48.148;11.542;2024-01-07T11:08:54;11.53;;;9.70;;
45011;SDS011;63444;48.148;11.542;2024-01-07T11:11:27;10.63;;;8.97;;
45011;SDS011;63444;48.148;11.542;2024-01-07T11:14:27;11.67;;;9.07;;
45011;SDS011;63444;48.148;11.542;2024-01-07T11:17:39;8.97;;;8.03;;
45011;SDS011;63444;48.148;11.542;2024-01-07T11:20:06;10.17;;;8.60;;
45011;SDS011;63444;48.148;11.542;2024-01-07T11:22:33;9.80;;;8.40;;
45011;SDS011;63444;48.148;11.542;2024-01-07T11:24:59;11.43;;;9.10;;
45011;SDS011;63444;48.148;11.542;2024-01-07T11:27:28;9.70;;;8.03;;
45011;SDS011;63444;48.148;11.542;2024-01-07T11:29:56;8.57;;;7.67;;
45011;SDS011;63444;48.148;11.542;2024-01-07T11:32:23;9.87;;;7.27;;
45011;SDS011;63444;48.148;11.542;2024-01-07T11:34:50;8.60;;;7.47;;
45011;SDS011;63444;48.148;11.542;2024-01-07T11:37:18;8.27;;;7.33;;
45011;SDS011;63444;48.148;11.542;2024-01-07T11:39:45;8.33;;;7.43;;
45011;SDS011;63444;48.148;11.542;2024-01-07T11:42:12;8.40;;;7.40;;
45011;SDS011;63444;48.148;11.542;2024-01-07T11:44:44;9.10;;;8.07;;
45011;SDS011;63444;48.148;11.542;2024-01-07T11:47:12;10.27;;;8.13;;
45011;SDS011;63444;48.148;11.542;2024-01-07T11:49:38;9.00;;;7.73;;
45011;SDS011;63444;48.148;11.542;2024-01-07T11:52:04;9.43;;;8.20;;
45011;SDS011;63444;48.148;11.542;2024-01-07T11:54:31;7.73;;;6.93;;
45011;SDS011;63444;48.148;11.542;2024-01-07T11:56:56;9.70;;;7.60;;
45011;SDS011;63444;48.148;11.542;2024-01-07T11:59:24;8.60;;;7.70;;
45011;SDS011;63444;48.148;11.542;2024-01-07T12:01:51;8.83;;;7.73;;
45011;SDS011;63444;48.148;11.542;2024-01-07T12:04:16;9.73;;;7.57;;
45011;SDS011;63444;48.148;11.542;2024-01-07T12:06:42;8.33;;;7.30;;
45011;SDS011;63444;48.148;11.542;2024-01-07T12:09:08;8.33;;;7.10;;
45011;SDS011;63444;48.148;11.542;2024-01-07T12:11:37;9.37;;;8.33;;
45011;SDS011;63444;48.148;11.542;2024-01-07T12:14:05;9.97;;;8.80;;
45011;SDS011;63444;48.148;11.542;2024-01-07T12:16:31;9.33;;;8.03;;
45011;SDS011;63444;48.148;11.542;2024-01-07T12:18:58;8.97;;;7.93;;
45011;SDS011;63444;48.148;11.542;2024-01-07T12:21:24;8.20;;;7.27;;
45011;SDS011;63444;48.148;11.542;2024-01-07T12:23:52;9.23;;;8.23;;
45011;SDS011;63444;48.148;11.542;2024-01-07T12:26:19;10.07;;;8.40;;
45011;SDS011;63444;48.148;11.542;2024-01-07T12:28:45;9.50;;;8.50;;
45011;SDS011;63444;48.148;11.542;2024-01-07T12:31:17;8.60;;;7.60;;
45011;SDS011;63444;48.148;11.542;2024-01-07T12:33:42;9.50;;;8.50;;
45011;SDS011;63444;48.148;11.542;2024-01-07T12:36:08;9.87;;;8.80;;
45011;SDS011;63444;48.148;11.542;2024-01-07T12:38:36;9.40;;;8.40;;
45011;SDS011;63444;48.148;11.542;2024-01-07T12:41:03;10.93;;;8.20;;
45011;SDS011;63444;48.148;11.542;2024-01-07T12:43:28;9.63;;;8.47;;
45011;SDS011;63444;48.148;11.542;2024-01-07T12:45:54;8.90;;;7.83;;
45011;SDS011;63444;48.148;11.542;2024-01-07T12:48:21;9.43;;;8.23;;
45011;SDS011;63444;48.148;11.542;2024-01-07T12:50:47;9.50;;;8.50;;
45011;SDS011;63444;48.148;11.542;2024-01-07T12:53:14;8.87;;;7.47;;
45011;SDS011;63444;48.148;11.542;2024-01-07T12:55:40;8.93;;;8.03;;
45011;SDS011;63444;48.148;11.542;2024-01-07T12:58:05;9.87;;;8.87;;
45011;SDS011;63444;48.148;11.542;2024-01-07T13:00:31;9.13;;;7.80;;
45011;SDS011;63444;48.148;11.542;2024-01-07T13:02:58;9.97;;;8.87;;
45011;SDS011;63444;48.148;11.542;2024-01-07T13:05:24;9.87;;;8.37;;
45011;SDS011;63444;48.148;11.542;2024-01-07T13:07:50;9.10;;;8.20;;
45011;SDS011;63444;48.148;11.542;2024-01-07T13:10:16;9.90;;;7.80;;
45011;SDS011;63444;48.148;11.542;2024-01-07T13:12:41;9.23;;;8.30;;
45011;SDS011;63444;48.148;11.542;2024-01-07T13:15:07;9.23;;;8.30;;
45011;SDS011;63444;48.148;11.542;2024-01-07T13:17:34;9.30;;;8.27;;
45011;SDS011;63444;48.148;11.542;2024-01-07T13:20:00;9.20;;;7.67;;
45011;SDS011;63444;48.148;11.542;2024-01-07T13:22:26;9.53;;;8.47;;
45011;SDS011;63444;48.148;11.542;2024-01-07T13:24:51;9.67;;;8.57;;
45011;SDS011;63444;48.148;11.542;2024-01-07T13:27:19;10.23;;;8.70;;
45011;SDS011;63444;48.148;11.542;2024-01-07T13:29:46;9.67;;;8.13;;
45011;SDS011;63444;48.148;11.542;2024-01-07T13:32:12;8.53;;;7.63;;
45011;SDS011;63444;48.148;11.542;2024-01-07T13:34:48;8.70;;;7.80;;
45011;SDS011;63444;48.148;11.542;2024-01-07T13:37:14;8.67;;;7.27;;
45011;SDS011;63444;48.148;11.542;2024-01-07T13:39:39;9.17;;;7.43;;
45011;SDS011;63444;48.148;11.542;2024-01-07T13:42:05;7.80;;;7.00;;
45011;SDS011;63444;48.148;11.542;2024-01-07T13:44:31;8.87;;;7.30;;
45011;SDS011;63444;48.148;11.542;2024-01-07T13:46:59;8.70;;;7.23;;
45011;SDS011;63444;48.148;11.542;2024-01-07T13:49:26;8.20;;;7.40;;
45011;SDS011;63444;48.148;11.542;2024-01-07T13:51:53;8.00;;;7.20;;
45011;SDS011;63444;48.148;11.542;2024-01-07T13:54:20;9.57;;;8.43;;
45011;SDS011;63444;48.148;11.542;2024-01-07T13:56:46;12.23;;;9.10;;
45011;SDS011;63444;48.148;11.542;2024-01-07T13:59:11;7.13;;;6.43;;
45011;SDS011;63444;48.148;11.542;2024-01-07T14:01:37;10.00;;;8.50;;
45011;SDS011;63444;48.148;11.542;2024-01-07T14:04:04;8.40;;;7.50;;
45011;SDS011;63444;48.148;11.542;2024-01-07T14:06:30;8.57;;;7.70;;
45011;SDS011;63444;48.148;11.542;2024-01-07T14:08:56;9.80;;;8.33;;
45011;SDS011;63444;48.148;11.542;2024-01-07T14:11:24;10.20;;;8.70;;
45011;SDS011;63444;48.148;11.542;2024-01-07T14:13:51;9.93;;;7.97;;
45011;SDS011;63444;48.148;11.542;2024-01-07T14:16:17;9.57;;;8.30;;
45011;SDS011;63444;48.148;11.542;2024-01-07T14:18:43;9.27;;;7.87;;
45011;SDS011;63444;48.148;11.542;2024-01-07T14:21:09;9.93;;;8.57;;
45011;SDS011;63444;48.148;11.542;2024-01-07T14:23:34;10.03;;;8.27;;
45011;SDS011;63444;48.148;11.542;2024-01-07T14:26:01;10.80;;;8.67;;
45011;SDS011;63444;48.148;11.542;2024-01-07T14:28:28;9.27;;;8.27;;
45011;SDS011;63444;48.148;11.542;2024-01-07T14:30:54;12.50;;;8.87;;
45011;SDS011;63444;48.148;11.542;2024-01-07T14:33:20;10.13;;;8.27;;